Hanjin Chongqing — 3EPJ2 — position and weather

sailwx.info

Track history (hours):
 
Tides and Currents Weather Stations Pressure Air Temp Water Temp Dewpoint Dewpoint Depression Visibility Wind Speed Wind Dir Waves Ship Positions

Hanjin Chongqing

Last reported at 2014-Jul-22 23:33 UTC. Time now 2014-Jul-22 23:36 UTC.
Position N 30°37' E 122°58'.

Length 304 m; draft 12 m.

Type: Cargo ship. MMSI: 353957976.

Date/timePositionNaut miles runAvg speedWind from/ knotsBaromVisibWave heightAir tempDewpointWater temp
2014-Jul-22 23:33N 30°37' E 122°58'8 7.9
2014-Jul-22 22:33N 30°45' E 122°56'8 8.0
2014-Jul-22 21:33N 30°52' E 122°53'9 8.7
2014-Jul-22 20:33N 31°01' E 122°51'9 8.2
2014-Jul-22 19:26N 31°06' E 122°41'1010.3
2014-Jul-22 18:28N 31°06' E 122°30'9 9.3
2014-Jul-22 17:33N 31°06' E 122°20'1313.0
2014-Jul-22 16:34N 31°13' E 122°07'1211.9
2014-Jul-22 15:33N 31°16' E 121°53'1212.6
2014-Jul-22 14:33N 31°21' E 121°40'5 5.1
2014-Jul-22 13:32N 31°23' E 121°35'0 0.0
2014-Jul-22 12:32N 31°23' E 121°35'0 0.0
2014-Jul-22 11:26N 31°23' E 121°35'0 0.0
2014-Jul-22 10:32N 31°23' E 121°35'0 0.0
2014-Jul-22 08:27N 31°23' E 121°35'0 0.0
2014-Jul-22 07:32N 31°23' E 121°35'0 0.0
2014-Jul-22 06:20N 31°23' E 121°35'0 0.0
2014-Jul-22 05:26N 31°23' E 121°35'0 0.0
2014-Jul-22 04:32N 31°23' E 121°35'0 0.0
2014-Jul-22 03:32N 31°23' E 121°35'0 0.0
2014-Jul-22 02:14N 31°23' E 121°35'1 0.8
2014-Jul-22 01:33N 31°23' E 121°35'9 8.7
2014-Jul-22 00:33N 31°19' E 121°43'1010.3
2014-Jul-21 23:33N 31°16' E 121°55'1110.1
2014-Jul-21 22:28N 31°13' E 122°07'9 9.8
2014-Jul-21 21:33N 31°08' E 122°16'8 7.1
2014-Jul-21 20:24N 31°07' E 122°25'2 7.7
2014-Jul-21 20:10N 31°07' E 122°27'5 7.7
2014-Jul-21 19:28N 31°07' E 122°34'9 8.0
2014-Jul-21 18:19N 31°08' E 122°44'1 0.1
2014-Jul-21 14:10N 31°09' E 122°45'0 0.1
2014-Jul-21 13:31N 31°09' E 122°45'0 0.1
2014-Jul-21 09:25N 31°09' E 122°44'4 0.6
2014-Jul-21 02:14N 31°10' E 122°49'  
Track history (hours):
 
Tides and Currents Weather Stations Pressure Air Temp Water Temp Dewpoint Dewpoint Depression Visibility Wind Speed Wind Dir Waves Ship Positions

Hanjin Chongqing

Last reported at 2014-Jul-22 23:33 UTC. Time now 2014-Jul-22 23:36 UTC.
Position N 30°37' E 122°58'.

Length 304 m; draft 12 m.

Type: Cargo ship. MMSI: 353957976.

Date/timePositionNaut miles runAvg speedWind from/ knotsBaromVisibWave heightAir tempDewpointWater temp
2014-Jul-22 23:33N 30°37' E 122°58'8 7.9
2014-Jul-22 22:33N 30°45' E 122°56'8 8.0
2014-Jul-22 21:33N 30°52' E 122°53'9 8.7
2014-Jul-22 20:33N 31°01' E 122°51'9 8.2
2014-Jul-22 19:26N 31°06' E 122°41'1010.3
2014-Jul-22 18:28N 31°06' E 122°30'9 9.3
2014-Jul-22 17:33N 31°06' E 122°20'1313.0
2014-Jul-22 16:34N 31°13' E 122°07'1211.9
2014-Jul-22 15:33N 31°16' E 121°53'1212.6
2014-Jul-22 14:33N 31°21' E 121°40'5 5.1
2014-Jul-22 13:32N 31°23' E 121°35'0 0.0
2014-Jul-22 12:32N 31°23' E 121°35'0 0.0
2014-Jul-22 11:26N 31°23' E 121°35'0 0.0
2014-Jul-22 10:32N 31°23' E 121°35'0 0.0
2014-Jul-22 08:27N 31°23' E 121°35'0 0.0
2014-Jul-22 07:32N 31°23' E 121°35'0 0.0
2014-Jul-22 06:20N 31°23' E 121°35'0 0.0
2014-Jul-22 05:26N 31°23' E 121°35'0 0.0
2014-Jul-22 04:32N 31°23' E 121°35'0 0.0
2014-Jul-22 03:32N 31°23' E 121°35'0 0.0
2014-Jul-22 02:14N 31°23' E 121°35'1 0.8
2014-Jul-22 01:33N 31°23' E 121°35'9 8.7
2014-Jul-22 00:33N 31°19' E 121°43'1010.3
2014-Jul-21 23:33N 31°16' E 121°55'1110.1
2014-Jul-21 22:28N 31°13' E 122°07'9 9.8
2014-Jul-21 21:33N 31°08' E 122°16'8 7.1
2014-Jul-21 20:24N 31°07' E 122°25'2 7.7
2014-Jul-21 20:10N 31°07' E 122°27'5 7.7
2014-Jul-21 19:28N 31°07' E 122°34'9 8.0
2014-Jul-21 18:19N 31°08' E 122°44'1 0.1
2014-Jul-21 14:10N 31°09' E 122°45'0 0.1
2014-Jul-21 13:31N 31°09' E 122°45'0 0.1
2014-Jul-21 09:25N 31°09' E 122°44'4 0.6
2014-Jul-21 02:14N 31°10' E 122°49'  

Dump ship's entire track history